createdAt,value
2019-04-11T00:01:10.093Z,1.53
2019-04-11T00:06:17.701Z,1.31
2019-04-11T00:11:28.156Z,1.46
2019-04-11T00:16:37.337Z,1.73
2019-04-11T00:21:44.863Z,1.53
2019-04-11T00:26:54.811Z,1.14
2019-04-11T00:32:04.916Z,1.76
2019-04-11T00:37:10.914Z,1.09
2019-04-11T00:42:20.746Z,1.55
2019-04-11T00:47:29.042Z,0.67
2019-04-11T00:52:37.095Z,1.11
2019-04-11T00:57:45.381Z,1.77
2019-04-11T01:02:54.330Z,1.63
2019-04-11T01:08:03.331Z,1.38
2019-04-11T01:13:14.090Z,1.11
2019-04-11T01:18:20.841Z,1.49
2019-04-11T01:23:29.830Z,1.00
2019-04-11T01:28:38.750Z,0.59
2019-04-11T01:33:48.372Z,1.31
2019-04-11T01:38:56.903Z,1.52
2019-04-11T01:44:07.089Z,1.78
2019-04-11T01:49:14.217Z,1.28
2019-04-11T01:54:21.840Z,1.07
2019-04-11T01:59:31.258Z,1.69
2019-04-11T02:04:40.379Z,1.59
2019-04-11T02:09:48.473Z,1.45
2019-04-11T02:14:57.620Z,1.45
2019-04-11T02:20:04.908Z,1.45
2019-04-11T02:25:14.479Z,1.61
2019-04-11T02:30:22.788Z,1.36
2019-04-11T02:35:31.213Z,1.35
2019-04-11T02:40:41.022Z,1.30
2019-04-11T02:46:00.175Z,1.64
2019-04-11T02:50:56.667Z,1.72
2019-04-11T02:56:06.314Z,1.68
2019-04-11T03:01:13.496Z,1.62
2019-04-11T03:06:23.441Z,1.89
2019-04-11T03:11:32.558Z,1.86
2019-04-11T03:16:54.505Z,1.84
2019-04-11T03:21:49.826Z,1.39
2019-04-11T03:26:59.736Z,1.68
2019-04-11T03:32:49.314Z,1.48
2019-04-11T03:37:37.980Z,1.18
2019-04-11T03:47:41.045Z,1.40
2019-04-11T03:52:38.993Z,1.67
2019-04-11T03:57:49.159Z,1.16
2019-04-11T04:02:57.481Z,1.65
2019-04-11T04:08:06.092Z,1.54
2019-04-11T04:13:16.156Z,1.32
2019-04-11T04:18:23.639Z,1.30
2019-04-11T04:23:31.456Z,1.28
2019-04-11T04:28:40.776Z,1.54
2019-04-11T04:33:47.639Z,1.69
2019-04-11T04:38:57.173Z,1.76
2019-04-11T04:44:08.420Z,1.52
2019-04-11T04:49:06.742Z,1.85
2019-04-11T04:54:14.221Z,1.25
2019-04-11T04:59:23.601Z,2.09
2019-04-11T05:04:31.785Z,1.38
2019-04-11T05:09:40.445Z,2.10
2019-04-11T05:14:47.910Z,1.44
2019-04-11T05:19:57.071Z,1.59
2019-04-11T05:25:06.732Z,1.96
2019-04-11T05:30:14.685Z,1.39
2019-04-11T05:35:23.405Z,1.94
2019-04-11T05:40:32.499Z,1.71
2019-04-11T05:45:42.244Z,1.20
2019-04-11T05:50:51.531Z,1.45
2019-04-11T05:55:59.119Z,1.18
2019-04-11T06:01:09.376Z,1.30
2019-04-11T06:06:16.353Z,2.18
2019-04-11T06:11:24.262Z,2.02
2019-04-11T06:16:39.644Z,1.99
2019-04-11T06:21:40.774Z,2.01
2019-04-11T06:26:49.733Z,1.76
2019-04-11T06:31:59.190Z,2.74
2019-04-11T06:37:07.667Z,2.78
2019-04-11T06:42:16.279Z,2.40
2019-04-11T06:47:30.964Z,2.67
2019-04-11T06:52:43.633Z,3.39
2019-04-11T06:57:48.046Z,2.65
2019-04-11T07:02:36.906Z,1.11
2019-04-11T07:07:47.848Z,2.87
2019-04-11T07:17:49.358Z,1.94
2019-04-11T07:22:59.412Z,3.15
2019-04-11T07:28:07.855Z,3.15
2019-04-11T07:33:15.988Z,2.65
2019-04-11T07:38:23.977Z,3.49
2019-04-11T07:43:33.514Z,2.34
2019-04-11T07:48:42.499Z,1.98
2019-04-11T07:53:52.878Z,2.46
2019-04-11T07:58:51.914Z,3.14
2019-04-11T08:04:01.666Z,2.33
2019-04-11T08:09:09.695Z,2.24
2019-04-11T08:14:18.462Z,1.75
2019-04-11T08:19:27.391Z,3.35
2019-04-11T08:24:36.614Z,2.34
2019-04-11T08:29:47.678Z,2.55
2019-04-11T08:34:53.915Z,1.32
2019-04-11T08:40:03.885Z,3.61
2019-04-11T08:45:12.330Z,1.74
2019-04-11T08:50:20.641Z,2.89
2019-04-11T08:55:29.380Z,3.96
2019-04-11T09:00:37.982Z,3.13
2019-04-11T09:05:45.270Z,1.67
2019-04-11T09:10:54.266Z,2.66
2019-04-11T09:16:03.504Z,1.61
2019-04-11T09:21:11.944Z,3.16
2019-04-11T09:26:20.669Z,3.40
2019-04-11T09:31:29.699Z,2.11
2019-04-11T09:36:38.825Z,2.95
2019-04-11T09:41:47.587Z,2.67
2019-04-11T09:46:57.055Z,2.88
2019-04-11T09:52:06.053Z,3.77
2019-04-11T09:57:13.426Z,3.46
2019-04-11T10:07:28.378Z,2.53
2019-04-11T10:17:44.859Z,2.74
2019-04-11T10:22:54.441Z,1.94
2019-04-11T10:28:02.816Z,1.52
2019-04-11T10:33:10.868Z,1.43
2019-04-11T10:38:20.383Z,2.84
2019-04-11T10:43:28.690Z,2.28
2019-04-11T10:48:39.442Z,2.62
2019-04-11T10:53:45.259Z,2.81
2019-04-11T10:58:55.283Z,2.50
2019-04-11T11:04:03.384Z,3.16
2019-04-11T11:09:12.199Z,2.64
2019-04-11T11:14:20.643Z,1.64
2019-04-11T11:24:40.253Z,2.68
2019-04-11T11:29:45.435Z,2.39
2019-04-11T11:34:55.049Z,2.22
2019-04-11T11:40:04.424Z,2.00
2019-04-11T11:45:11.070Z,2.02
2019-04-11T11:50:22.121Z,2.79
2019-04-11T11:55:29.439Z,2.47
2019-04-11T12:00:36.975Z,2.98
2019-04-11T12:05:48.531Z,2.67
2019-04-11T12:10:54.488Z,2.34
2019-04-11T12:16:03.752Z,1.86
2019-04-11T12:21:11.959Z,2.25
2019-04-11T12:26:21.996Z,2.86
2019-04-11T12:31:31.517Z,1.87
2019-04-11T12:36:41.921Z,2.78
2019-04-11T12:41:46.346Z,1.36
2019-04-11T12:46:55.255Z,2.14
2019-04-11T12:52:04.240Z,0.97
2019-04-11T12:57:13.130Z,1.99
2019-04-11T13:02:22.066Z,1.99
2019-04-11T13:07:30.986Z,1.67
2019-04-11T13:12:39.923Z,2.50
2019-04-11T13:17:48.862Z,2.75
2019-04-11T13:22:57.787Z,1.90
2019-04-11T13:28:06.699Z,2.81
2019-04-11T13:33:15.699Z,2.50
2019-04-11T13:38:24.614Z,2.88
2019-04-11T13:43:33.629Z,2.65
2019-04-11T13:48:44.310Z,1.96
2019-04-11T13:53:51.011Z,2.72
2019-04-11T13:58:59.952Z,0.76
2019-04-11T14:04:08.978Z,2.79
2019-04-11T14:09:17.862Z,2.82
2019-04-11T14:14:26.832Z,2.97
2019-04-11T14:19:35.763Z,1.22
2019-04-11T14:24:44.707Z,2.97
2019-04-11T14:29:53.630Z,2.08
2019-04-11T14:35:02.562Z,2.04
2019-04-11T14:40:11.485Z,2.96
2019-04-11T14:45:20.436Z,3.07
2019-04-11T14:50:40.370Z,3.05
2019-04-11T14:55:37.875Z,1.84
2019-04-11T15:00:46.795Z,2.84
2019-04-11T15:05:55.902Z,2.71
2019-04-11T15:11:04.882Z,1.73
2019-04-11T15:16:13.891Z,3.05
2019-04-11T15:21:22.803Z,2.88
2019-04-11T15:26:32.139Z,3.06
2019-04-11T15:31:41.451Z,2.58
2019-04-11T15:36:50.739Z,2.80
2019-04-11T15:42:09.983Z,2.32
2019-04-11T15:47:05.633Z,1.46
2019-04-11T15:52:14.597Z,2.39
2019-04-11T15:57:23.891Z,2.15
2019-04-11T16:02:32.838Z,3.05
2019-04-11T16:07:42.197Z,3.28
2019-04-11T16:12:51.122Z,2.85
2019-04-11T16:18:00.455Z,2.96
2019-04-11T16:23:09.378Z,3.30
2019-04-11T16:28:18.676Z,1.86
2019-04-11T16:33:27.586Z,1.50
2019-04-11T16:38:36.894Z,2.54
2019-04-11T16:43:45.853Z,1.99
2019-04-11T16:48:55.909Z,2.71
2019-04-11T16:54:04.019Z,1.67
2019-04-11T16:59:11.815Z,2.77
2019-04-11T17:04:20.831Z,3.29
2019-04-11T17:09:29.772Z,2.63
2019-04-11T17:14:38.839Z,2.15
2019-04-11T17:19:47.759Z,2.09
2019-04-11T17:24:56.727Z,2.39
2019-04-11T17:30:05.660Z,2.81
2019-04-11T17:35:15.433Z,2.01
2019-04-11T17:40:23.178Z,3.06
2019-04-11T17:45:32.131Z,3.15
2019-04-11T17:50:41.075Z,2.87
2019-04-11T17:55:52.035Z,3.51
2019-04-11T18:01:00.417Z,2.78
2019-04-11T18:06:07.058Z,3.23
2019-04-11T18:11:15.974Z,3.49
2019-04-11T18:16:24.998Z,3.01
2019-04-11T18:21:34.857Z,2.85
2019-04-11T18:26:42.362Z,2.69
2019-04-11T18:31:51.298Z,2.96
2019-04-11T18:37:02.208Z,2.51
2019-04-11T18:42:09.085Z,3.05
2019-04-11T18:47:18.011Z,3.13
2019-04-11T18:52:28.922Z,2.99
2019-04-11T18:57:35.707Z,3.06
2019-04-11T19:02:44.734Z,3.24
2019-04-11T19:07:53.706Z,2.91
2019-04-11T19:13:02.659Z,3.16
2019-04-11T19:18:11.680Z,3.39
2019-04-11T19:23:20.594Z,3.10
2019-04-11T19:28:29.542Z,3.53
2019-04-11T19:33:40.007Z,3.34
2019-04-11T19:38:46.919Z,3.13
2019-04-11T19:43:55.851Z,2.96
2019-04-11T19:49:04.818Z,2.91
2019-04-11T19:54:13.734Z,3.13
2019-04-11T19:59:22.728Z,3.39
2019-04-11T20:04:31.639Z,2.90
2019-04-11T20:09:40.662Z,3.23
2019-04-11T20:14:49.606Z,3.44
2019-04-11T20:20:01.586Z,3.05
2019-04-11T20:25:07.098Z,3.45
2019-04-11T20:30:16.090Z,3.22
2019-04-11T20:35:29.016Z,2.76
2019-04-11T20:40:33.479Z,3.06
2019-04-11T20:45:42.502Z,3.20
2019-04-11T20:50:51.454Z,3.34
2019-04-11T20:56:00.395Z,3.32
2019-04-11T21:01:09.355Z,3.32
2019-04-11T21:06:18.294Z,3.36
2019-04-11T21:11:27.238Z,3.47
2019-04-11T21:16:36.166Z,3.59
2019-04-11T21:21:45.142Z,3.50
2019-04-11T21:26:54.092Z,3.16
2019-04-11T21:32:03.028Z,3.59
2019-04-11T21:37:11.935Z,3.53
2019-04-11T21:42:20.907Z,3.29
2019-04-11T21:47:29.830Z,4.16
2019-04-11T21:52:43.451Z,3.77
2019-04-11T21:57:48.881Z,3.99
2019-04-11T22:02:55.771Z,3.89
2019-04-11T22:08:06.337Z,3.81
2019-04-11T22:13:05.310Z,3.81
2019-04-11T22:18:16.831Z,3.89
2019-04-11T22:23:22.718Z,4.05
2019-04-11T22:28:31.710Z,3.19
2019-04-11T22:33:40.647Z,3.73
2019-04-11T22:38:49.594Z,2.98
2019-04-11T22:43:58.518Z,3.55
2019-04-11T22:49:08.929Z,3.72
2019-04-11T22:54:15.946Z,3.85
2019-04-11T22:59:24.919Z,3.68
2019-04-11T23:04:33.857Z,4.04
2019-04-11T23:09:42.783Z,3.86
2019-04-11T23:14:51.717Z,3.72
2019-04-11T23:20:00.642Z,3.76
2019-04-11T23:25:09.597Z,3.24
2019-04-11T23:30:19.033Z,4.07
2019-04-11T23:35:26.991Z,4.08
2019-04-11T23:40:35.902Z,3.90
2019-04-11T23:45:44.866Z,3.83
2019-04-11T23:50:55.180Z,4.42
2019-04-11T23:56:02.292Z,4.21
